sensor_id;sensor_type;location;lat;lon;timestamp;P1;durP1;ratioP1;P2;durP2;ratioP2
55913;SDS011;58179;48.776;9.124;2023-07-31T00:00:37;5.93;;;1.70;;
55913;SDS011;58179;48.776;9.124;2023-07-31T00:03:05;2.97;;;1.73;;
55913;SDS011;58179;48.776;9.124;2023-07-31T00:05:31;5.38;;;1.92;;
55913;SDS011;58179;48.776;9.124;2023-07-31T00:07:57;8.00;;;2.40;;
55913;SDS011;58179;48.776;9.124;2023-07-31T00:10:23;4.82;;;1.80;;
55913;SDS011;58179;48.776;9.124;2023-07-31T00:12:49;3.67;;;1.70;;
55913;SDS011;58179;48.776;9.124;2023-07-31T00:15:15;4.57;;;1.97;;
55913;SDS011;58179;48.776;9.124;2023-07-31T00:17:42;6.03;;;2.10;;
55913;SDS011;58179;48.776;9.124;2023-07-31T00:20:10;5.97;;;2.17;;
55913;SDS011;58179;48.776;9.124;2023-07-31T00:22:36;6.47;;;1.90;;
55913;SDS011;58179;48.776;9.124;2023-07-31T00:25:02;3.30;;;1.77;;
55913;SDS011;58179;48.776;9.124;2023-07-31T00:27:31;4.45;;;2.38;;
55913;SDS011;58179;48.776;9.124;2023-07-31T00:29:57;4.37;;;2.30;;
55913;SDS011;58179;48.776;9.124;2023-07-31T00:32:23;4.68;;;2.05;;
55913;SDS011;58179;48.776;9.124;2023-07-31T00:34:49;3.35;;;1.90;;
55913;SDS011;58179;48.776;9.124;2023-07-31T00:37:17;5.05;;;1.80;;
55913;SDS011;58179;48.776;9.124;2023-07-31T00:39:43;4.05;;;1.90;;
55913;SDS011;58179;48.776;9.124;2023-07-31T00:42:09;4.53;;;1.83;;
55913;SDS011;58179;48.776;9.124;2023-07-31T00:44:36;3.13;;;1.80;;
55913;SDS011;58179;48.776;9.124;2023-07-31T00:47:02;3.30;;;1.70;;
55913;SDS011;58179;48.776;9.124;2023-07-31T00:49:28;6.10;;;1.80;;
55913;SDS011;58179;48.776;9.124;2023-07-31T00:51:55;4.03;;;1.88;;
55913;SDS011;58179;48.776;9.124;2023-07-31T00:54:23;4.90;;;1.98;;
55913;SDS011;58179;48.776;9.124;2023-07-31T00:56:50;4.55;;;2.00;;
55913;SDS011;58179;48.776;9.124;2023-07-31T00:59:18;4.72;;;1.80;;
55913;SDS011;58179;48.776;9.124;2023-07-31T01:01:44;4.90;;;1.90;;
55913;SDS011;58179;48.776;9.124;2023-07-31T01:04:11;2.33;;;1.80;;
55913;SDS011;58179;48.776;9.124;2023-07-31T01:06:39;4.05;;;1.67;;
55913;SDS011;58179;48.776;9.124;2023-07-31T01:09:16;5.80;;;1.83;;
55913;SDS011;58179;48.776;9.124;2023-07-31T01:11:52;2.60;;;1.50;;
55913;SDS011;58179;48.776;9.124;2023-07-31T01:14:22;3.50;;;1.90;;
55913;SDS011;58179;48.776;9.124;2023-07-31T01:16:48;3.63;;;2.00;;
55913;SDS011;58179;48.776;9.124;2023-07-31T01:19:14;4.77;;;2.07;;
55913;SDS011;58179;48.776;9.124;2023-07-31T01:21:52;8.48;;;2.13;;
55913;SDS011;58179;48.776;9.124;2023-07-31T01:24:35;4.80;;;1.83;;
55913;SDS011;58179;48.776;9.124;2023-07-31T01:27:09;6.37;;;2.50;;
55913;SDS011;58179;48.776;9.124;2023-07-31T01:29:38;6.00;;;2.20;;
55913;SDS011;58179;48.776;9.124;2023-07-31T01:32:12;4.00;;;1.90;;
55913;SDS011;58179;48.776;9.124;2023-07-31T01:34:38;5.43;;;2.30;;
55913;SDS011;58179;48.776;9.124;2023-07-31T01:37:06;4.03;;;1.98;;
55913;SDS011;58179;48.776;9.124;2023-07-31T01:39:32;5.78;;;2.35;;
55913;SDS011;58179;48.776;9.124;2023-07-31T01:41:58;5.82;;;2.10;;
55913;SDS011;58179;48.776;9.124;2023-07-31T01:44:26;4.95;;;2.67;;
55913;SDS011;58179;48.776;9.124;2023-07-31T01:46:52;4.43;;;2.00;;
55913;SDS011;58179;48.776;9.124;2023-07-31T01:49:18;4.95;;;2.25;;
55913;SDS011;58179;48.776;9.124;2023-07-31T01:51:44;4.32;;;1.88;;
55913;SDS011;58179;48.776;9.124;2023-07-31T01:54:10;4.47;;;2.10;;
55913;SDS011;58179;48.776;9.124;2023-07-31T01:56:37;2.83;;;1.80;;
55913;SDS011;58179;48.776;9.124;2023-07-31T01:59:03;3.65;;;1.88;;
55913;SDS011;58179;48.776;9.124;2023-07-31T02:01:30;3.90;;;1.90;;
55913;SDS011;58179;48.776;9.124;2023-07-31T02:03:57;4.75;;;2.00;;
55913;SDS011;58179;48.776;9.124;2023-07-31T02:06:23;3.58;;;2.00;;
55913;SDS011;58179;48.776;9.124;2023-07-31T02:08:49;3.17;;;1.90;;
55913;SDS011;58179;48.776;9.124;2023-07-31T02:11:15;4.47;;;2.13;;
55913;SDS011;58179;48.776;9.124;2023-07-31T02:13:41;4.05;;;2.00;;
55913;SDS011;58179;48.776;9.124;2023-07-31T02:16:08;2.78;;;1.90;;
55913;SDS011;58179;48.776;9.124;2023-07-31T02:18:35;6.18;;;2.05;;
55913;SDS011;58179;48.776;9.124;2023-07-31T02:21:01;6.27;;;2.27;;
55913;SDS011;58179;48.776;9.124;2023-07-31T02:23:28;4.30;;;1.90;;
55913;SDS011;58179;48.776;9.124;2023-07-31T02:25:54;5.47;;;2.20;;
55913;SDS011;58179;48.776;9.124;2023-07-31T02:28:20;5.35;;;2.05;;
55913;SDS011;58179;48.776;9.124;2023-07-31T02:30:46;3.28;;;2.17;;
55913;SDS011;58179;48.776;9.124;2023-07-31T02:33:12;4.77;;;2.10;;
55913;SDS011;58179;48.776;9.124;2023-07-31T02:35:40;5.38;;;2.40;;
55913;SDS011;58179;48.776;9.124;2023-07-31T02:38:06;3.72;;;2.08;;
55913;SDS011;58179;48.776;9.124;2023-07-31T02:40:33;2.78;;;2.00;;
55913;SDS011;58179;48.776;9.124;2023-07-31T02:42:59;7.68;;;2.20;;
55913;SDS011;58179;48.776;9.124;2023-07-31T02:45:25;3.27;;;1.90;;
55913;SDS011;58179;48.776;9.124;2023-07-31T02:47:51;3.97;;;1.85;;
55913;SDS011;58179;48.776;9.124;2023-07-31T02:50:18;8.75;;;2.50;;
55913;SDS011;58179;48.776;9.124;2023-07-31T02:52:45;4.88;;;2.40;;
55913;SDS011;58179;48.776;9.124;2023-07-31T02:55:11;3.87;;;2.10;;
55913;SDS011;58179;48.776;9.124;2023-07-31T02:57:37;3.63;;;1.83;;
55913;SDS011;58179;48.776;9.124;2023-07-31T03:00:04;2.72;;;1.90;;
55913;SDS011;58179;48.776;9.124;2023-07-31T03:02:31;2.85;;;2.08;;
55913;SDS011;58179;48.776;9.124;2023-07-31T03:04:58;4.50;;;2.10;;
55913;SDS011;58179;48.776;9.124;2023-07-31T03:07:24;3.13;;;1.90;;
55913;SDS011;58179;48.776;9.124;2023-07-31T03:09:52;4.65;;;2.22;;
55913;SDS011;58179;48.776;9.124;2023-07-31T03:12:18;4.68;;;2.30;;
55913;SDS011;58179;48.776;9.124;2023-07-31T03:14:44;4.30;;;2.00;;
55913;SDS011;58179;48.776;9.124;2023-07-31T03:17:11;4.07;;;2.15;;
55913;SDS011;58179;48.776;9.124;2023-07-31T03:19:37;4.90;;;1.98;;
55913;SDS011;58179;48.776;9.124;2023-07-31T03:22:03;4.32;;;2.05;;
55913;SDS011;58179;48.776;9.124;2023-07-31T03:24:30;5.53;;;2.50;;
55913;SDS011;58179;48.776;9.124;2023-07-31T03:26:58;5.00;;;2.05;;
55913;SDS011;58179;48.776;9.124;2023-07-31T03:29:24;6.50;;;2.53;;
55913;SDS011;58179;48.776;9.124;2023-07-31T03:31:50;4.90;;;2.17;;
55913;SDS011;58179;48.776;9.124;2023-07-31T03:34:16;7.60;;;2.85;;
55913;SDS011;58179;48.776;9.124;2023-07-31T03:36:43;3.30;;;2.10;;
55913;SDS011;58179;48.776;9.124;2023-07-31T03:39:09;4.78;;;2.25;;
55913;SDS011;58179;48.776;9.124;2023-07-31T03:41:35;3.72;;;2.30;;
55913;SDS011;58179;48.776;9.124;2023-07-31T03:44:03;3.30;;;2.15;;
55913;SDS011;58179;48.776;9.124;2023-07-31T03:46:29;4.30;;;2.15;;
55913;SDS011;58179;48.776;9.124;2023-07-31T03:48:55;4.32;;;1.95;;
55913;SDS011;58179;48.776;9.124;2023-07-31T03:51:22;6.43;;;2.30;;
55913;SDS011;58179;48.776;9.124;2023-07-31T03:53:48;6.53;;;2.37;;
55913;SDS011;58179;48.776;9.124;2023-07-31T03:56:14;5.13;;;2.70;;
55913;SDS011;58179;48.776;9.124;2023-07-31T03:58:40;5.65;;;2.15;;
55913;SDS011;58179;48.776;9.124;2023-07-31T04:01:08;3.78;;;2.15;;
55913;SDS011;58179;48.776;9.124;2023-07-31T04:03:34;3.70;;;2.13;;
55913;SDS011;58179;48.776;9.124;2023-07-31T04:06:00;4.30;;;1.90;;
55913;SDS011;58179;48.776;9.124;2023-07-31T04:08:26;4.40;;;2.13;;
55913;SDS011;58179;48.776;9.124;2023-07-31T04:10:52;2.58;;;1.70;;
55913;SDS011;58179;48.776;9.124;2023-07-31T04:13:18;9.38;;;2.60;;
55913;SDS011;58179;48.776;9.124;2023-07-31T04:15:47;4.70;;;1.93;;
55913;SDS011;58179;48.776;9.124;2023-07-31T04:18:16;3.92;;;1.90;;
55913;SDS011;58179;48.776;9.124;2023-07-31T04:20:42;2.90;;;1.70;;
55913;SDS011;58179;48.776;9.124;2023-07-31T04:23:09;3.05;;;1.88;;
55913;SDS011;58179;48.776;9.124;2023-07-31T04:25:35;3.08;;;1.70;;
55913;SDS011;58179;48.776;9.124;2023-07-31T04:28:01;4.68;;;1.70;;
55913;SDS011;58179;48.776;9.124;2023-07-31T04:30:27;6.33;;;2.00;;
55913;SDS011;58179;48.776;9.124;2023-07-31T04:32:54;4.45;;;1.70;;
55913;SDS011;58179;48.776;9.124;2023-07-31T04:35:21;3.53;;;1.80;;
55913;SDS011;58179;48.776;9.124;2023-07-31T04:37:47;4.03;;;1.88;;
55913;SDS011;58179;48.776;9.124;2023-07-31T04:40:14;5.90;;;2.10;;
55913;SDS011;58179;48.776;9.124;2023-07-31T04:42:40;2.78;;;1.90;;
55913;SDS011;58179;48.776;9.124;2023-07-31T04:45:08;2.92;;;2.03;;
55913;SDS011;58179;48.776;9.124;2023-07-31T04:47:34;3.28;;;1.88;;
55913;SDS011;58179;48.776;9.124;2023-07-31T04:50:01;2.70;;;1.70;;
55913;SDS011;58179;48.776;9.124;2023-07-31T04:52:28;2.72;;;1.48;;
55913;SDS011;58179;48.776;9.124;2023-07-31T04:54:54;2.00;;;1.70;;
55913;SDS011;58179;48.776;9.124;2023-07-31T04:57:21;4.50;;;1.98;;
55913;SDS011;58179;48.776;9.124;2023-07-31T04:59:47;5.95;;;2.28;;
55913;SDS011;58179;48.776;9.124;2023-07-31T05:02:13;6.67;;;2.07;;
55913;SDS011;58179;48.776;9.124;2023-07-31T05:04:39;5.10;;;2.20;;
55913;SDS011;58179;48.776;9.124;2023-07-31T05:07:05;2.83;;;2.03;;
55913;SDS011;58179;48.776;9.124;2023-07-31T05:09:33;4.32;;;2.13;;
55913;SDS011;58179;48.776;9.124;2023-07-31T05:11:59;3.85;;;2.00;;
55913;SDS011;58179;48.776;9.124;2023-07-31T05:14:25;6.47;;;2.20;;
55913;SDS011;58179;48.776;9.124;2023-07-31T05:16:52;2.78;;;1.95;;
55913;SDS011;58179;48.776;9.124;2023-07-31T05:19:18;3.35;;;1.70;;
55913;SDS011;58179;48.776;9.124;2023-07-31T05:21:44;5.90;;;1.90;;
55913;SDS011;58179;48.776;9.124;2023-07-31T05:24:10;3.67;;;1.90;;
55913;SDS011;58179;48.776;9.124;2023-07-31T05:26:38;3.42;;;1.92;;
55913;SDS011;58179;48.776;9.124;2023-07-31T05:29:04;4.57;;;2.25;;
55913;SDS011;58179;48.776;9.124;2023-07-31T05:31:30;4.40;;;2.10;;
55913;SDS011;58179;48.776;9.124;2023-07-31T05:33:57;3.72;;;2.10;;
55913;SDS011;58179;48.776;9.124;2023-07-31T05:36:23;2.97;;;1.97;;
55913;SDS011;58179;48.776;9.124;2023-07-31T05:38:50;2.67;;;1.73;;
55913;SDS011;58179;48.776;9.124;2023-07-31T05:41:16;3.20;;;1.70;;
55913;SDS011;58179;48.776;9.124;2023-07-31T05:43:44;3.75;;;1.60;;
55913;SDS011;58179;48.776;9.124;2023-07-31T05:46:11;2.38;;;1.58;;
55913;SDS011;58179;48.776;9.124;2023-07-31T05:48:37;4.40;;;2.00;;
55913;SDS011;58179;48.776;9.124;2023-07-31T05:51:03;4.27;;;1.80;;
55913;SDS011;58179;48.776;9.124;2023-07-31T05:53:29;2.92;;;1.90;;
55913;SDS011;58179;48.776;9.124;2023-07-31T05:55:56;5.78;;;2.20;;
55913;SDS011;58179;48.776;9.124;2023-07-31T05:58:22;3.75;;;1.95;;
55913;SDS011;58179;48.776;9.124;2023-07-31T06:00:50;3.38;;;1.90;;
55913;SDS011;58179;48.776;9.124;2023-07-31T06:03:16;5.75;;;2.13;;
55913;SDS011;58179;48.776;9.124;2023-07-31T06:05:42;4.70;;;1.93;;
55913;SDS011;58179;48.776;9.124;2023-07-31T06:08:08;5.28;;;1.98;;
55913;SDS011;58179;48.776;9.124;2023-07-31T06:10:35;4.20;;;2.05;;
55913;SDS011;58179;48.776;9.124;2023-07-31T06:13:01;3.93;;;1.83;;
55913;SDS011;58179;48.776;9.124;2023-07-31T06:15:27;4.50;;;1.77;;
55913;SDS011;58179;48.776;9.124;2023-07-31T06:17:55;7.72;;;2.60;;
55913;SDS011;58179;48.776;9.124;2023-07-31T06:20:21;5.30;;;1.95;;
55913;SDS011;58179;48.776;9.124;2023-07-31T06:22:47;4.93;;;2.38;;
55913;SDS011;58179;48.776;9.124;2023-07-31T06:25:13;8.30;;;2.70;;
55913;SDS011;58179;48.776;9.124;2023-07-31T06:27:40;6.93;;;2.10;;
55913;SDS011;58179;48.776;9.124;2023-07-31T06:30:06;4.40;;;2.20;;
55913;SDS011;58179;48.776;9.124;2023-07-31T06:32:33;12.63;;;2.63;;
55913;SDS011;58179;48.776;9.124;2023-07-31T06:35:00;5.97;;;2.50;;
55913;SDS011;58179;48.776;9.124;2023-07-31T06:37:27;5.47;;;2.22;;
55913;SDS011;58179;48.776;9.124;2023-07-31T06:39:53;7.82;;;2.33;;
55913;SDS011;58179;48.776;9.124;2023-07-31T06:42:19;6.07;;;2.27;;
55913;SDS011;58179;48.776;9.124;2023-07-31T06:44:46;5.18;;;2.15;;
55913;SDS011;58179;48.776;9.124;2023-07-31T06:47:12;6.32;;;2.35;;
55913;SDS011;58179;48.776;9.124;2023-07-31T06:49:38;7.85;;;2.20;;
55913;SDS011;58179;48.776;9.124;2023-07-31T06:52:06;6.03;;;2.30;;
55913;SDS011;58179;48.776;9.124;2023-07-31T06:54:32;6.90;;;2.70;;
55913;SDS011;58179;48.776;9.124;2023-07-31T06:56:58;4.70;;;1.88;;
55913;SDS011;58179;48.776;9.124;2023-07-31T06:59:24;3.95;;;2.35;;
55913;SDS011;58179;48.776;9.124;2023-07-31T07:01:50;5.80;;;2.35;;
55913;SDS011;58179;48.776;9.124;2023-07-31T07:04:17;7.50;;;2.27;;
55913;SDS011;58179;48.776;9.124;2023-07-31T07:06:43;5.05;;;2.13;;
55913;SDS011;58179;48.776;9.124;2023-07-31T07:09:10;6.10;;;2.30;;
55913;SDS011;58179;48.776;9.124;2023-07-31T07:11:37;6.53;;;2.05;;
55913;SDS011;58179;48.776;9.124;2023-07-31T07:14:03;6.05;;;2.08;;
55913;SDS011;58179;48.776;9.124;2023-07-31T07:16:29;5.60;;;2.30;;
55913;SDS011;58179;48.776;9.124;2023-07-31T07:18:55;4.68;;;2.10;;
55913;SDS011;58179;48.776;9.124;2023-07-31T07:21:22;7.25;;;2.40;;
55913;SDS011;58179;48.776;9.124;2023-07-31T07:23:48;7.15;;;2.13;;
55913;SDS011;58179;48.776;9.124;2023-07-31T07:26:16;8.43;;;2.70;;
55913;SDS011;58179;48.776;9.124;2023-07-31T07:28:42;7.38;;;2.08;;
55913;SDS011;58179;48.776;9.124;2023-07-31T07:31:08;6.13;;;2.33;;
55913;SDS011;58179;48.776;9.124;2023-07-31T07:33:35;5.70;;;2.42;;
55913;SDS011;58179;48.776;9.124;2023-07-31T07:36:01;7.85;;;2.20;;
55913;SDS011;58179;48.776;9.124;2023-07-31T07:38:28;7.03;;;2.22;;
55913;SDS011;58179;48.776;9.124;2023-07-31T07:40:54;7.07;;;2.33;;
55913;SDS011;58179;48.776;9.124;2023-07-31T07:43:21;4.22;;;2.10;;
55913;SDS011;58179;48.776;9.124;2023-07-31T07:45:48;4.67;;;2.30;;
55913;SDS011;58179;48.776;9.124;2023-07-31T07:48:14;7.22;;;2.40;;
55913;SDS011;58179;48.776;9.124;2023-07-31T07:50:42;2.67;;;1.98;;
55913;SDS011;58179;48.776;9.124;2023-07-31T07:53:08;5.20;;;2.42;;
55913;SDS011;58179;48.776;9.124;2023-07-31T07:55:35;11.73;;;3.00;;
55913;SDS011;58179;48.776;9.124;2023-07-31T07:58:01;4.40;;;2.10;;
55913;SDS011;58179;48.776;9.124;2023-07-31T08:00:28;6.40;;;2.40;;
55913;SDS011;58179;48.776;9.124;2023-07-31T08:02:54;5.35;;;2.50;;
55913;SDS011;58179;48.776;9.124;2023-07-31T08:05:23;7.00;;;2.40;;
55913;SDS011;58179;48.776;9.124;2023-07-31T08:07:50;4.15;;;2.15;;
55913;SDS011;58179;48.776;9.124;2023-07-31T08:10:16;8.27;;;2.67;;
55913;SDS011;58179;48.776;9.124;2023-07-31T08:12:42;5.75;;;2.42;;
55913;SDS011;58179;48.776;9.124;2023-07-31T08:15:08;12.48;;;2.90;;
55913;SDS011;58179;48.776;9.124;2023-07-31T08:17:36;4.18;;;2.20;;
55913;SDS011;58179;48.776;9.124;2023-07-31T08:20:02;7.55;;;2.67;;
55913;SDS011;58179;48.776;9.124;2023-07-31T08:22:29;9.38;;;2.70;;
55913;SDS011;58179;48.776;9.124;2023-07-31T08:24:56;6.90;;;2.75;;
55913;SDS011;58179;48.776;9.124;2023-07-31T08:27:22;6.33;;;2.23;;
55913;SDS011;58179;48.776;9.124;2023-07-31T08:29:48;9.35;;;2.45;;
55913;SDS011;58179;48.776;9.124;2023-07-31T08:32:16;9.27;;;2.65;;
55913;SDS011;58179;48.776;9.124;2023-07-31T08:34:44;6.07;;;2.50;;
55913;SDS011;58179;48.776;9.124;2023-07-31T08:37:10;6.88;;;2.65;;
55913;SDS011;58179;48.776;9.124;2023-07-31T08:39:36;9.60;;;2.50;;
55913;SDS011;58179;48.776;9.124;2023-07-31T08:42:07;8.10;;;2.30;;
55913;SDS011;58179;48.776;9.124;2023-07-31T08:44:34;6.37;;;2.50;;
55913;SDS011;58179;48.776;9.124;2023-07-31T08:47:01;7.10;;;2.58;;
55913;SDS011;58179;48.776;9.124;2023-07-31T08:49:28;6.80;;;2.40;;
55913;SDS011;58179;48.776;9.124;2023-07-31T08:51:57;6.75;;;2.65;;
55913;SDS011;58179;48.776;9.124;2023-07-31T08:54:23;7.72;;;2.60;;
55913;SDS011;58179;48.776;9.124;2023-07-31T08:56:49;10.38;;;3.10;;
55913;SDS011;58179;48.776;9.124;2023-07-31T08:59:17;7.63;;;2.33;;
55913;SDS011;58179;48.776;9.124;2023-07-31T09:01:48;7.15;;;2.30;;
55913;SDS011;58179;48.776;9.124;2023-07-31T09:04:18;6.20;;;2.50;;
55913;SDS011;58179;48.776;9.124;2023-07-31T09:06:46;6.65;;;2.40;;
55913;SDS011;58179;48.776;9.124;2023-07-31T09:09:14;6.53;;;2.50;;
55913;SDS011;58179;48.776;9.124;2023-07-31T09:11:41;5.90;;;2.45;;
55913;SDS011;58179;48.776;9.124;2023-07-31T09:14:09;7.93;;;2.50;;
55913;SDS011;58179;48.776;9.124;2023-07-31T09:16:50;5.60;;;2.50;;
55913;SDS011;58179;48.776;9.124;2023-07-31T09:19:24;7.95;;;2.42;;
55913;SDS011;58179;48.776;9.124;2023-07-31T09:21:51;10.10;;;2.80;;
55913;SDS011;58179;48.776;9.124;2023-07-31T09:24:25;5.97;;;2.42;;
55913;SDS011;58179;48.776;9.124;2023-07-31T09:26:53;6.28;;;2.70;;
55913;SDS011;58179;48.776;9.124;2023-07-31T09:29:26;8.32;;;2.80;;
55913;SDS011;58179;48.776;9.124;2023-07-31T09:31:54;4.50;;;2.20;;
55913;SDS011;58179;48.776;9.124;2023-07-31T09:34:27;6.47;;;2.80;;
55913;SDS011;58179;48.776;9.124;2023-07-31T09:36:57;5.57;;;2.47;;
55913;SDS011;58179;48.776;9.124;2023-07-31T09:39:27;6.57;;;2.67;;
55913;SDS011;58179;48.776;9.124;2023-07-31T09:41:55;8.82;;;2.70;;
55913;SDS011;58179;48.776;9.124;2023-07-31T09:44:25;3.38;;;2.15;;
55913;SDS011;58179;48.776;9.124;2023-07-31T09:47:04;5.93;;;2.40;;
55913;SDS011;58179;48.776;9.124;2023-07-31T09:49:31;6.63;;;2.60;;
55913;SDS011;58179;48.776;9.124;2023-07-31T09:51:57;6.75;;;2.55;;
55913;SDS011;58179;48.776;9.124;2023-07-31T09:54:23;6.47;;;2.50;;
55913;SDS011;58179;48.776;9.124;2023-07-31T09:56:51;7.45;;;2.70;;
55913;SDS011;58179;48.776;9.124;2023-07-31T09:59:19;11.90;;;2.95;;
55913;SDS011;58179;48.776;9.124;2023-07-31T10:01:46;6.50;;;2.50;;
55913;SDS011;58179;48.776;9.124;2023-07-31T10:04:13;7.67;;;2.53;;
55913;SDS011;58179;48.776;9.124;2023-07-31T10:06:44;10.27;;;2.63;;
55913;SDS011;58179;48.776;9.124;2023-07-31T10:09:15;7.32;;;2.53;;
55913;SDS011;58179;48.776;9.124;2023-07-31T10:11:45;4.47;;;2.20;;
55913;SDS011;58179;48.776;9.124;2023-07-31T10:14:17;7.67;;;2.40;;
55913;SDS011;58179;48.776;9.124;2023-07-31T10:16:45;6.37;;;2.57;;
55913;SDS011;58179;48.776;9.124;2023-07-31T10:19:12;6.07;;;2.35;;
55913;SDS011;58179;48.776;9.124;2023-07-31T10:21:38;8.70;;;2.90;;
55913;SDS011;58179;48.776;9.124;2023-07-31T10:24:06;7.57;;;2.75;;
55913;SDS011;58179;48.776;9.124;2023-07-31T10:26:34;5.77;;;2.43;;
55913;SDS011;58179;48.776;9.124;2023-07-31T10:29:02;6.57;;;2.42;;
55913;SDS011;58179;48.776;9.124;2023-07-31T10:31:31;8.40;;;2.70;;
55913;SDS011;58179;48.776;9.124;2023-07-31T10:33:59;6.57;;;2.80;;
55913;SDS011;58179;48.776;9.124;2023-07-31T10:36:27;6.82;;;2.38;;
55913;SDS011;58179;48.776;9.124;2023-07-31T10:38:54;5.22;;;2.42;;
55913;SDS011;58179;48.776;9.124;2023-07-31T10:41:27;7.80;;;2.80;;
55913;SDS011;58179;48.776;9.124;2023-07-31T10:43:57;7.90;;;3.00;;
55913;SDS011;58179;48.776;9.124;2023-07-31T10:46:24;8.20;;;2.67;;
55913;SDS011;58179;48.776;9.124;2023-07-31T10:48:56;6.53;;;2.70;;
55913;SDS011;58179;48.776;9.124;2023-07-31T10:51:24;4.67;;;2.30;;
55913;SDS011;58179;48.776;9.124;2023-07-31T10:54:10;8.93;;;3.28;;
55913;SDS011;58179;48.776;9.124;2023-07-31T10:56:37;6.95;;;2.60;;
55913;SDS011;58179;48.776;9.124;2023-07-31T10:59:04;7.90;;;2.90;;
55913;SDS011;58179;48.776;9.124;2023-07-31T11:04:17;6.78;;;2.88;;
55913;SDS011;58179;48.776;9.124;2023-07-31T11:06:55;9.15;;;3.58;;
55913;SDS011;58179;48.776;9.124;2023-07-31T11:09:22;6.65;;;2.75;;
55913;SDS011;58179;48.776;9.124;2023-07-31T11:11:49;6.97;;;2.77;;
55913;SDS011;58179;48.776;9.124;2023-07-31T11:14:17;8.40;;;3.08;;
55913;SDS011;58179;48.776;9.124;2023-07-31T11:16:43;5.60;;;2.60;;
55913;SDS011;58179;48.776;9.124;2023-07-31T11:19:09;7.70;;;2.95;;
55913;SDS011;58179;48.776;9.124;2023-07-31T11:21:37;9.15;;;2.80;;
55913;SDS011;58179;48.776;9.124;2023-07-31T11:24:03;4.27;;;2.50;;
55913;SDS011;58179;48.776;9.124;2023-07-31T11:26:30;9.38;;;2.78;;
55913;SDS011;58179;48.776;9.124;2023-07-31T11:28:56;7.32;;;2.80;;
55913;SDS011;58179;48.776;9.124;2023-07-31T11:31:22;5.37;;;2.50;;
55913;SDS011;58179;48.776;9.124;2023-07-31T11:33:48;7.00;;;2.83;;
55913;SDS011;58179;48.776;9.124;2023-07-31T11:36:15;7.05;;;2.50;;
55913;SDS011;58179;48.776;9.124;2023-07-31T11:38:43;5.35;;;2.78;;
55913;SDS011;58179;48.776;9.124;2023-07-31T11:41:09;3.97;;;2.28;;
55913;SDS011;58179;48.776;9.124;2023-07-31T11:43:38;5.32;;;2.28;;
55913;SDS011;58179;48.776;9.124;2023-07-31T11:46:04;5.75;;;2.60;;
55913;SDS011;58179;48.776;9.124;2023-07-31T11:48:32;10.48;;;3.03;;
55913;SDS011;58179;48.776;9.124;2023-07-31T11:51:01;12.10;;;2.97;;
55913;SDS011;58179;48.776;9.124;2023-07-31T11:53:28;8.73;;;2.80;;
55913;SDS011;58179;48.776;9.124;2023-07-31T11:56:01;6.93;;;2.60;;
55913;SDS011;58179;48.776;9.124;2023-07-31T11:58:31;8.48;;;2.75;;
55913;SDS011;58179;48.776;9.124;2023-07-31T12:01:00;5.90;;;3.05;;
55913;SDS011;58179;48.776;9.124;2023-07-31T12:03:27;3.78;;;2.30;;
55913;SDS011;58179;48.776;9.124;2023-07-31T12:05:54;7.78;;;2.70;;
55913;SDS011;58179;48.776;9.124;2023-07-31T12:08:20;3.13;;;2.25;;
55913;SDS011;58179;48.776;9.124;2023-07-31T12:10:49;4.73;;;2.63;;
55913;SDS011;58179;48.776;9.124;2023-07-31T12:13:21;4.18;;;2.15;;
55913;SDS011;58179;48.776;9.124;2023-07-31T12:15:49;8.13;;;3.20;;
55913;SDS011;58179;48.776;9.124;2023-07-31T12:18:20;6.28;;;2.85;;
55913;SDS011;58179;48.776;9.124;2023-07-31T12:20:47;6.22;;;2.58;;
55913;SDS011;58179;48.776;9.124;2023-07-31T12:23:20;6.10;;;2.90;;
55913;SDS011;58179;48.776;9.124;2023-07-31T12:25:59;6.70;;;2.60;;
55913;SDS011;58179;48.776;9.124;2023-07-31T12:28:27;5.22;;;2.40;;
55913;SDS011;58179;48.776;9.124;2023-07-31T12:30:56;4.33;;;2.30;;
55913;SDS011;58179;48.776;9.124;2023-07-31T12:33:24;4.55;;;2.30;;
55913;SDS011;58179;48.776;9.124;2023-07-31T12:35:57;6.32;;;2.90;;
55913;SDS011;58179;48.776;9.124;2023-07-31T12:38:25;6.22;;;2.58;;
55913;SDS011;58179;48.776;9.124;2023-07-31T12:40:51;8.30;;;3.00;;
55913;SDS011;58179;48.776;9.124;2023-07-31T12:43:17;8.03;;;3.03;;
55913;SDS011;58179;48.776;9.124;2023-07-31T12:45:45;9.02;;;3.17;;
55913;SDS011;58179;48.776;9.124;2023-07-31T12:48:12;6.78;;;2.97;;
55913;SDS011;58179;48.776;9.124;2023-07-31T12:50:38;4.07;;;2.28;;
55913;SDS011;58179;48.776;9.124;2023-07-31T12:53:05;4.22;;;2.50;;
55913;SDS011;58179;48.776;9.124;2023-07-31T12:55:32;4.95;;;2.33;;
55913;SDS011;58179;48.776;9.124;2023-07-31T12:57:59;5.47;;;2.80;;
55913;SDS011;58179;48.776;9.124;2023-07-31T13:00:26;4.00;;;2.10;;
55913;SDS011;58179;48.776;9.124;2023-07-31T13:02:53;5.07;;;2.47;;
55913;SDS011;58179;48.776;9.124;2023-07-31T13:05:20;4.85;;;2.35;;
55913;SDS011;58179;48.776;9.124;2023-07-31T13:07:46;5.93;;;2.83;;
55913;SDS011;58179;48.776;9.124;2023-07-31T13:10:12;4.72;;;2.55;;
55913;SDS011;58179;48.776;9.124;2023-07-31T13:12:39;7.70;;;3.30;;
55913;SDS011;58179;48.776;9.124;2023-07-31T13:15:06;5.72;;;2.78;;
55913;SDS011;58179;48.776;9.124;2023-07-31T13:17:32;6.38;;;2.80;;
55913;SDS011;58179;48.776;9.124;2023-07-31T13:20:00;3.83;;;2.33;;
55913;SDS011;58179;48.776;9.124;2023-07-31T13:22:26;3.70;;;2.33;;
55913;SDS011;58179;48.776;9.124;2023-07-31T13:24:52;6.70;;;2.60;;
55913;SDS011;58179;48.776;9.124;2023-07-31T13:27:18;4.55;;;2.42;;
55913;SDS011;58179;48.776;9.124;2023-07-31T13:29:46;4.15;;;2.40;;
55913;SDS011;58179;48.776;9.124;2023-07-31T13:32:13;7.50;;;3.47;;
55913;SDS011;58179;48.776;9.124;2023-07-31T13:34:39;6.80;;;3.10;;
55913;SDS011;58179;48.776;9.124;2023-07-31T13:37:06;5.57;;;2.50;;
55913;SDS011;58179;48.776;9.124;2023-07-31T13:39:33;4.32;;;2.45;;
55913;SDS011;58179;48.776;9.124;2023-07-31T13:41:59;4.93;;;2.53;;
55913;SDS011;58179;48.776;9.124;2023-07-31T13:44:25;4.93;;;2.55;;
55913;SDS011;58179;48.776;9.124;2023-07-31T13:46:51;5.57;;;2.70;;
55913;SDS011;58179;48.776;9.124;2023-07-31T13:49:18;5.63;;;2.80;;
55913;SDS011;58179;48.776;9.124;2023-07-31T13:51:44;5.40;;;2.47;;
55913;SDS011;58179;48.776;9.124;2023-07-31T13:54:12;4.50;;;2.50;;
55913;SDS011;58179;48.776;9.124;2023-07-31T13:56:40;4.43;;;2.13;;
55913;SDS011;58179;48.776;9.124;2023-07-31T13:59:07;5.95;;;2.50;;
55913;SDS011;58179;48.776;9.124;2023-07-31T14:01:33;8.70;;;2.78;;
55913;SDS011;58179;48.776;9.124;2023-07-31T14:04:00;6.45;;;2.67;;
55913;SDS011;58179;48.776;9.124;2023-07-31T14:06:26;3.73;;;2.40;;
55913;SDS011;58179;48.776;9.124;2023-07-31T14:08:52;5.38;;;2.80;;
55913;SDS011;58179;48.776;9.124;2023-07-31T14:11:20;4.10;;;2.25;;
55913;SDS011;58179;48.776;9.124;2023-07-31T14:13:46;4.03;;;2.30;;
55913;SDS011;58179;48.776;9.124;2023-07-31T14:16:13;9.70;;;3.13;;
55913;SDS011;58179;48.776;9.124;2023-07-31T14:18:39;6.17;;;2.60;;
55913;SDS011;58179;48.776;9.124;2023-07-31T14:21:06;6.72;;;2.58;;
55913;SDS011;58179;48.776;9.124;2023-07-31T14:23:33;5.78;;;2.80;;
55913;SDS011;58179;48.776;9.124;2023-07-31T14:25:59;11.50;;;3.25;;
55913;SDS011;58179;48.776;9.124;2023-07-31T14:28:27;6.35;;;2.70;;
55913;SDS011;58179;48.776;9.124;2023-07-31T14:30:53;7.65;;;3.00;;
55913;SDS011;58179;48.776;9.124;2023-07-31T14:33:19;7.10;;;2.23;;
55913;SDS011;58179;48.776;9.124;2023-07-31T14:35:45;5.32;;;2.40;;
55913;SDS011;58179;48.776;9.124;2023-07-31T14:38:11;5.80;;;2.63;;
55913;SDS011;58179;48.776;9.124;2023-07-31T14:40:38;7.43;;;2.88;;
55913;SDS011;58179;48.776;9.124;2023-07-31T14:43:04;4.15;;;2.40;;
55913;SDS011;58179;48.776;9.124;2023-07-31T14:45:32;4.78;;;2.55;;
55913;SDS011;58179;48.776;9.124;2023-07-31T14:47:58;5.78;;;2.65;;
55913;SDS011;58179;48.776;9.124;2023-07-31T14:50:24;6.07;;;2.50;;